createdAt,value
2022-08-03T00:01:52.633Z,51.39
2022-08-03T00:04:19.795Z,51.46
2022-08-03T00:06:46.861Z,51.78
2022-08-03T00:09:13.988Z,51.55
2022-08-03T00:11:41.056Z,51.54
2022-08-03T00:14:09.808Z,51.65
2022-08-03T00:16:37.196Z,51.80
2022-08-03T00:19:04.798Z,52.10
2022-08-03T00:21:31.957Z,51.82
2022-08-03T00:23:58.980Z,52.17
2022-08-03T00:26:26.256Z,52.27
2022-08-03T00:28:53.652Z,52.15
2022-08-03T00:31:29.674Z,52.35
2022-08-03T00:34:11.280Z,53.20
2022-08-03T00:36:40.043Z,52.70
2022-08-03T00:39:06.993Z,53.05
2022-08-03T00:41:33.984Z,53.20
2022-08-03T00:44:01.149Z,53.44
2022-08-03T00:46:28.252Z,53.07
2022-08-03T00:48:55.298Z,52.84
2022-08-03T00:51:23.313Z,53.17
2022-08-03T00:53:51.252Z,53.39
2022-08-03T00:56:18.659Z,53.80
2022-08-03T00:58:47.358Z,53.91
2022-08-03T01:01:15.663Z,53.83
2022-08-03T01:03:42.801Z,53.83
2022-08-03T01:06:27.179Z,53.83
2022-08-03T01:09:12.680Z,54.38
2022-08-03T01:12:04.160Z,53.93
2022-08-03T01:14:41.813Z,54.42
2022-08-03T01:17:57.442Z,54.40
2022-08-03T01:20:27.755Z,54.25
2022-08-03T01:23:16.319Z,54.54
2022-08-03T01:26:36.862Z,54.09
2022-08-03T01:29:39.677Z,54.19
2022-08-03T01:32:58.041Z,54.38
2022-08-03T01:35:12.589Z,54.50
2022-08-03T01:37:52.309Z,54.36
2022-08-03T01:40:22.373Z,54.62
2022-08-03T01:42:52.184Z,55.09
2022-08-03T01:45:20.949Z,54.81
2022-08-03T01:47:49.937Z,55.04
2022-08-03T01:50:21.567Z,54.82
2022-08-03T01:52:50.180Z,54.65
2022-08-03T01:55:19.566Z,54.47
2022-08-03T01:58:05.819Z,55.28
2022-08-03T02:00:37.685Z,55.30
2022-08-03T02:03:09.937Z,55.77
2022-08-03T02:05:40.085Z,55.42
2022-08-03T02:08:13.853Z,54.92
2022-08-03T02:10:43.690Z,55.34
2022-08-03T02:13:11.343Z,54.84
2022-08-03T02:15:39.487Z,54.59
2022-08-03T02:18:10.676Z,55.23
2022-08-03T02:20:40.289Z,55.09
2022-08-03T02:23:07.884Z,55.58
2022-08-03T02:25:52.395Z,56.01
2022-08-03T02:28:22.941Z,56.16
2022-08-03T02:30:56.051Z,56.07
2022-08-03T02:33:31.999Z,56.79
2022-08-03T02:36:01.612Z,56.32
2022-08-03T02:38:36.561Z,56.13
2022-08-03T02:41:09.684Z,56.39
2022-08-03T02:43:56.777Z,56.86
2022-08-03T02:46:34.105Z,56.52
2022-08-03T02:49:41.359Z,56.42
2022-08-03T02:51:55.247Z,56.72
2022-08-03T02:54:25.165Z,56.99
2022-08-03T02:56:55.372Z,56.67
2022-08-03T02:59:23.599Z,56.63
2022-08-03T03:01:51.737Z,56.93
2022-08-03T03:04:19.296Z,56.51
2022-08-03T03:06:49.096Z,56.60
2022-08-03T03:09:17.603Z,56.91
2022-08-03T03:11:45.264Z,56.85
2022-08-03T03:14:13.568Z,56.69
2022-08-03T03:16:42.438Z,56.82
2022-08-03T03:19:13.392Z,57.21
2022-08-03T03:21:41.084Z,57.24
2022-08-03T03:24:10.430Z,57.30
2022-08-03T03:26:42.493Z,57.23
2022-08-03T03:29:10.090Z,57.60
2022-08-03T03:31:37.467Z,57.28
2022-08-03T03:34:05.185Z,57.57
2022-08-03T03:36:33.872Z,57.54
2022-08-03T03:39:15.941Z,57.89
2022-08-03T03:41:44.085Z,57.47
2022-08-03T03:44:11.152Z,57.45
2022-08-03T03:46:39.781Z,57.35
2022-08-03T03:49:07.676Z,57.66
2022-08-03T03:51:35.224Z,57.77
2022-08-03T03:54:07.114Z,56.95
2022-08-03T03:56:34.376Z,57.63
2022-08-03T03:59:01.526Z,57.02
2022-08-03T04:01:29.464Z,57.78
2022-08-03T04:03:56.563Z,57.70
2022-08-03T04:06:44.164Z,57.49
2022-08-03T04:09:30.075Z,57.42
2022-08-03T04:12:02.049Z,58.04
2022-08-03T04:14:34.075Z,58.23
2022-08-03T04:17:07.740Z,57.91
2022-08-03T04:19:40.882Z,57.88
2022-08-03T04:22:13.065Z,58.06
2022-08-03T04:24:47.132Z,58.41
2022-08-03T04:27:18.460Z,58.45
2022-08-03T04:29:49.689Z,58.68
2022-08-03T04:32:18.195Z,58.62
2022-08-03T04:34:45.889Z,58.36
2022-08-03T04:37:27.013Z,58.69
2022-08-03T04:39:58.923Z,58.66
2022-08-03T04:42:27.567Z,58.18
2022-08-03T04:45:00.783Z,58.90
2022-08-03T04:47:31.493Z,58.67
2022-08-03T04:50:00.569Z,58.88
2022-08-03T04:52:27.648Z,58.33
2022-08-03T04:54:54.601Z,58.61
2022-08-03T04:57:22.822Z,58.70
2022-08-03T05:00:01.255Z,58.90
2022-08-03T05:02:31.376Z,58.62
2022-08-03T05:04:59.193Z,58.92
2022-08-03T05:07:26.583Z,58.95
2022-08-03T05:10:16.517Z,58.46
2022-08-03T05:12:48.116Z,58.45
2022-08-03T05:15:16.033Z,58.44
2022-08-03T05:17:44.376Z,58.26
2022-08-03T05:20:12.860Z,58.24
2022-08-03T05:22:40.022Z,58.42
2022-08-03T05:25:07.843Z,58.43
2022-08-03T05:27:35.132Z,58.21
2022-08-03T05:30:29.652Z,58.63
2022-08-03T05:32:49.229Z,58.17
2022-08-03T05:36:01.565Z,58.48
2022-08-03T05:38:05.156Z,58.24
2022-08-03T05:40:32.992Z,58.43
2022-08-03T05:43:00.725Z,58.33
2022-08-03T05:45:28.806Z,58.09
2022-08-03T05:47:56.049Z,57.99
2022-08-03T05:50:24.117Z,58.13
2022-08-03T05:52:51.433Z,58.18
2022-08-03T05:55:19.135Z,58.51
2022-08-03T05:57:47.538Z,58.33
2022-08-03T06:00:16.984Z,58.18
2022-08-03T06:02:45.196Z,57.85
2022-08-03T06:05:12.240Z,58.02
2022-08-03T06:07:39.731Z,58.32
2022-08-03T06:10:36.528Z,57.94
2022-08-03T06:12:56.292Z,57.89
2022-08-03T06:15:23.497Z,57.83
2022-08-03T06:17:52.127Z,58.15
2022-08-03T06:20:21.066Z,57.81
2022-08-03T06:22:50.786Z,57.94
2022-08-03T06:25:21.292Z,58.06
2022-08-03T06:27:48.931Z,58.04
2022-08-03T06:30:21.121Z,57.79
2022-08-03T06:32:51.686Z,57.77
2022-08-03T06:35:20.378Z,57.61
2022-08-03T06:37:51.586Z,57.62
2022-08-03T06:40:29.120Z,57.62
2022-08-03T06:43:00.953Z,57.37
2022-08-03T06:45:31.815Z,57.39
2022-08-03T06:48:11.601Z,57.43
2022-08-03T06:50:41.739Z,57.05
2022-08-03T06:53:18.145Z,57.29
2022-08-03T06:55:51.147Z,57.14
2022-08-03T06:58:21.227Z,56.96
2022-08-03T07:00:48.417Z,56.61
2022-08-03T07:03:15.609Z,56.39
2022-08-03T07:05:48.082Z,56.05
2022-08-03T07:08:15.698Z,55.71
2022-08-03T07:10:43.505Z,55.44
2022-08-03T07:13:11.378Z,55.13
2022-08-03T07:15:55.654Z,55.07
2022-08-03T07:18:29.236Z,54.79
2022-08-03T07:20:58.354Z,54.79
2022-08-03T07:23:25.928Z,54.63
2022-08-03T07:25:53.111Z,54.13
2022-08-03T07:28:20.729Z,54.12
2022-08-03T07:30:48.097Z,53.85
2022-08-03T07:33:15.737Z,53.65
2022-08-03T07:35:42.851Z,53.65
2022-08-03T07:38:12.611Z,53.40
2022-08-03T07:40:44.435Z,53.28
2022-08-03T07:43:13.486Z,53.40
2022-08-03T07:45:40.458Z,53.11
2022-08-03T07:48:11.935Z,52.59
2022-08-03T07:50:39.649Z,52.12
2022-08-03T07:53:06.773Z,51.95
2022-08-03T07:55:35.229Z,52.08
2022-08-03T07:58:09.942Z,51.70
2022-08-03T08:00:37.569Z,51.63
2022-08-03T08:03:05.703Z,51.47
2022-08-03T08:05:33.882Z,50.94
2022-08-03T08:08:05.020Z,50.93
2022-08-03T08:10:32.884Z,50.92
2022-08-03T08:13:00.393Z,50.44
2022-08-03T08:15:28.091Z,50.56
2022-08-03T08:17:59.646Z,49.97
2022-08-03T08:20:37.921Z,50.23
2022-08-03T08:23:37.663Z,49.67
2022-08-03T08:25:56.150Z,49.20
2022-08-03T08:28:32.585Z,48.86
2022-08-03T08:31:02.120Z,49.40
2022-08-03T08:33:47.862Z,48.46
2022-08-03T08:36:16.988Z,48.46
2022-08-03T08:38:45.306Z,48.07
2022-08-03T08:41:14.679Z,47.95
2022-08-03T08:43:42.256Z,47.46
2022-08-03T08:46:23.589Z,47.60
2022-08-03T08:48:53.604Z,47.74
2022-08-03T08:51:22.569Z,46.54
2022-08-03T08:53:54.106Z,46.01
2022-08-03T08:56:26.034Z,46.28
2022-08-03T08:59:01.437Z,45.13
2022-08-03T09:01:30.724Z,45.65
2022-08-03T09:03:57.837Z,45.46
2022-08-03T09:06:25.169Z,45.07
2022-08-03T09:08:52.527Z,45.30
2022-08-03T09:12:00.918Z,44.42
2022-08-03T09:14:36.599Z,43.69
2022-08-03T09:17:04.551Z,44.14
2022-08-03T09:19:33.535Z,42.90
2022-08-03T09:22:18.631Z,43.32
2022-08-03T09:25:27.195Z,43.60
2022-08-03T09:27:54.509Z,43.04
2022-08-03T09:30:34.487Z,42.43
2022-08-03T09:33:08.740Z,42.20
2022-08-03T09:35:54.154Z,41.75
2022-08-03T09:38:27.449Z,41.25
2022-08-03T09:41:00.033Z,41.69
2022-08-03T09:43:28.485Z,40.22
2022-08-03T09:46:05.865Z,39.16
2022-08-03T09:48:37.271Z,40.36
2022-08-03T09:51:14.041Z,40.15
2022-08-03T09:53:59.702Z,39.96
2022-08-03T09:56:47.524Z,40.05
2022-08-03T09:59:28.289Z,39.31
2022-08-03T10:01:57.660Z,39.12
2022-08-03T10:04:25.556Z,38.84
2022-08-03T10:07:11.186Z,39.25
2022-08-03T10:09:38.687Z,38.83
2022-08-03T10:12:14.099Z,38.77
2022-08-03T10:14:45.548Z,38.64
2022-08-03T10:17:13.047Z,38.91
2022-08-03T10:19:41.553Z,39.25
2022-08-03T10:22:12.735Z,38.10
2022-08-03T10:24:54.693Z,37.94
2022-08-03T10:27:24.560Z,37.92
2022-08-03T10:29:55.809Z,37.87
2022-08-03T10:32:41.906Z,37.02
2022-08-03T10:35:21.549Z,36.41
2022-08-03T10:38:08.734Z,36.80
2022-08-03T10:40:48.539Z,36.88
2022-08-03T10:43:29.073Z,36.28
2022-08-03T10:45:58.105Z,36.21
2022-08-03T10:48:26.308Z,36.31
2022-08-03T10:50:54.073Z,36.25
2022-08-03T10:53:55.059Z,36.78
2022-08-03T10:56:53.556Z,36.52
2022-08-03T10:59:47.158Z,36.04
2022-08-03T11:02:15.700Z,36.06
2022-08-03T11:04:45.401Z,35.31
2022-08-03T11:07:25.537Z,34.94
2022-08-03T11:09:56.605Z,34.50
2022-08-03T11:12:32.269Z,34.35
2022-08-03T11:15:07.517Z,34.64
2022-08-03T11:17:45.712Z,34.35
2022-08-03T11:20:14.142Z,34.78
2022-08-03T11:22:54.137Z,34.57
2022-08-03T11:25:53.630Z,34.71
2022-08-03T11:28:28.553Z,34.32
2022-08-03T11:30:56.070Z,34.01
2022-08-03T11:33:30.703Z,33.58
2022-08-03T11:36:02.703Z,32.48
2022-08-03T11:38:30.020Z,32.24
2022-08-03T11:40:57.405Z,32.91
2022-08-03T11:43:31.559Z,32.29
2022-08-03T11:46:28.233Z,32.79
2022-08-03T11:49:10.315Z,31.55
2022-08-03T11:51:39.996Z,32.37
2022-08-03T11:54:07.363Z,31.72
2022-08-03T11:56:49.615Z,31.95
2022-08-03T11:59:22.120Z,32.21
2022-08-03T12:01:50.790Z,32.49
2022-08-03T12:04:17.908Z,31.75
2022-08-03T12:07:01.818Z,31.72
2022-08-03T12:09:28.992Z,31.55
2022-08-03T12:12:00.280Z,30.47
2022-08-03T12:14:49.910Z,30.60
2022-08-03T12:17:17.392Z,31.02
2022-08-03T12:19:45.435Z,30.78
2022-08-03T12:22:13.606Z,30.80
2022-08-03T12:24:42.757Z,30.50
2022-08-03T12:27:10.025Z,31.02
2022-08-03T12:29:37.314Z,30.26
2022-08-03T12:32:04.786Z,31.21
2022-08-03T12:34:48.913Z,30.45
2022-08-03T12:37:23.810Z,30.15
2022-08-03T12:40:01.328Z,29.95
2022-08-03T12:42:35.515Z,30.05
2022-08-03T12:45:25.592Z,29.30
2022-08-03T12:47:59.050Z,28.49
2022-08-03T12:50:31.936Z,28.48
2022-08-03T12:53:08.022Z,27.62
2022-08-03T12:55:40.206Z,26.24
2022-08-03T12:58:35.410Z,26.19
2022-08-03T13:01:09.975Z,26.31
2022-08-03T13:03:50.131Z,25.26
2022-08-03T13:06:25.401Z,24.96
2022-08-03T13:09:07.414Z,24.20
2022-08-03T13:11:55.848Z,23.91
2022-08-03T13:14:23.800Z,23.16
2022-08-03T13:16:51.509Z,22.58
2022-08-03T13:19:19.074Z,22.48
2022-08-03T13:22:01.333Z,21.85
2022-08-03T13:24:32.960Z,21.95
2022-08-03T13:27:02.806Z,20.79
2022-08-03T13:29:49.662Z,20.52
2022-08-03T13:32:16.946Z,20.04
2022-08-03T13:34:44.573Z,19.39
2022-08-03T13:37:12.202Z,19.11
2022-08-03T13:39:57.226Z,18.95
2022-08-03T13:42:26.348Z,19.05
2022-08-03T13:44:53.327Z,19.07
2022-08-03T13:47:20.998Z,18.72
2022-08-03T13:50:00.269Z,18.14
2022-08-03T13:52:34.633Z,17.29
2022-08-03T13:55:04.357Z,16.85
2022-08-03T13:58:02.453Z,17.07
2022-08-03T14:00:28.072Z,17.15
2022-08-03T14:03:09.216Z,16.47
2022-08-03T14:05:41.197Z,16.80
2022-08-03T14:08:08.735Z,16.51
2022-08-03T14:10:42.584Z,15.83
2022-08-03T14:13:12.976Z,15.54
2022-08-03T14:15:50.183Z,15.84
2022-08-03T14:18:29.048Z,15.04
2022-08-03T14:21:07.010Z,15.40
2022-08-03T14:23:37.400Z,15.13
2022-08-03T14:26:10.146Z,14.72
2022-08-03T14:28:37.381Z,15.00
2022-08-03T14:31:08.163Z,14.43
2022-08-03T14:33:43.367Z,14.09
2022-08-03T14:36:10.324Z,14.13
2022-08-03T14:38:37.313Z,14.06
2022-08-03T14:41:04.689Z,13.49
2022-08-03T14:43:33.869Z,13.67
2022-08-03T14:46:02.653Z,13.43
2022-08-03T14:50:30.416Z,13.04
2022-08-03T14:51:16.826Z,12.85
2022-08-03T14:53:43.841Z,13.21
2022-08-03T14:56:11.088Z,13.54
2022-08-03T14:58:39.109Z,13.74
2022-08-03T15:02:02.107Z,12.78
2022-08-03T15:03:54.907Z,13.53
2022-08-03T15:06:21.842Z,13.38
2022-08-03T15:09:13.629Z,13.31
2022-08-03T15:11:37.112Z,12.97
2022-08-03T15:14:09.024Z,13.35
2022-08-03T15:16:38.061Z,12.63
2022-08-03T15:19:59.448Z,12.60
2022-08-03T15:21:53.340Z,12.37
2022-08-03T15:24:20.832Z,13.00
2022-08-03T15:26:47.859Z,12.11
2022-08-03T15:30:06.700Z,12.30
2022-08-03T15:32:06.079Z,12.51
2022-08-03T15:34:35.882Z,12.19
2022-08-03T15:37:03.059Z,12.60
2022-08-03T15:40:00.118Z,12.56
2022-08-03T15:42:31.121Z,12.01
2022-08-03T15:44:58.493Z,12.22
2022-08-03T15:47:25.681Z,11.95
2022-08-03T15:49:53.545Z,11.76
2022-08-03T15:52:20.642Z,12.15
2022-08-03T15:54:47.676Z,11.71
2022-08-03T15:57:17.232Z,12.13
2022-08-03T15:59:44.311Z,11.66
2022-08-03T16:02:11.398Z,12.14
2022-08-03T16:04:38.387Z,12.29
2022-08-03T16:07:05.658Z,11.99
2022-08-03T16:09:42.127Z,11.87
2022-08-03T16:12:16.211Z,11.81
2022-08-03T16:14:52.820Z,12.35
2022-08-03T16:17:21.688Z,12.18
2022-08-03T16:19:49.098Z,12.28
2022-08-03T16:22:19.470Z,11.92
2022-08-03T16:24:47.154Z,11.58
2022-08-03T16:27:17.641Z,11.61
2022-08-03T16:30:01.888Z,12.05
2022-08-03T16:32:29.171Z,11.84
2022-08-03T16:34:56.152Z,11.70
2022-08-03T16:37:38.277Z,12.39
2022-08-03T16:40:18.925Z,12.34
2022-08-03T16:42:47.963Z,12.40
2022-08-03T16:45:15.052Z,12.77
2022-08-03T16:47:42.302Z,12.70
2022-08-03T16:50:15.777Z,12.85
2022-08-03T16:52:47.020Z,12.46
2022-08-03T16:55:18.358Z,12.67
2022-08-03T16:58:03.874Z,12.21
2022-08-03T17:00:45.529Z,12.71
2022-08-03T17:03:19.135Z,12.80
2022-08-03T17:05:52.242Z,12.66
2022-08-03T17:08:26.635Z,13.14
2022-08-03T17:10:55.791Z,13.34
2022-08-03T17:13:39.510Z,12.87
2022-08-03T17:16:15.295Z,13.42
2022-08-03T17:18:58.238Z,13.70
2022-08-03T17:21:39.127Z,13.69
2022-08-03T17:24:19.646Z,13.58
2022-08-03T17:26:51.084Z,13.78
2022-08-03T17:29:23.063Z,14.16
2022-08-03T17:31:54.745Z,14.50
2022-08-03T17:34:26.246Z,14.26
2022-08-03T17:37:22.095Z,13.78
2022-08-03T17:39:59.825Z,14.70
2022-08-03T17:42:32.084Z,14.55
2022-08-03T17:45:03.999Z,14.97
2022-08-03T17:47:41.813Z,15.47
2022-08-03T17:50:23.359Z,16.17
2022-08-03T17:53:07.482Z,16.32
2022-08-03T17:55:56.942Z,16.35
2022-08-03T17:58:55.111Z,16.98
2022-08-03T18:01:59.249Z,16.97
2022-08-03T18:04:42.169Z,18.22
2022-08-03T18:07:12.710Z,18.27
2022-08-03T18:10:04.944Z,18.79
2022-08-03T18:12:53.216Z,18.73
2022-08-03T18:15:47.508Z,19.33
2022-08-03T18:18:17.522Z,19.66
2022-08-03T18:21:06.706Z,20.03
2022-08-03T18:23:38.876Z,20.35
2022-08-03T18:26:12.026Z,20.78
2022-08-03T18:28:39.903Z,20.73
2022-08-03T18:31:12.862Z,22.15
2022-08-03T18:34:16.800Z,22.49
2022-08-03T18:36:50.481Z,22.99
2022-08-03T18:39:19.842Z,23.05
2022-08-03T18:41:47.036Z,23.30
2022-08-03T18:44:53.105Z,24.46
2022-08-03T18:47:51.530Z,24.24
2022-08-03T18:50:50.139Z,24.50
2022-08-03T18:54:02.143Z,24.79
2022-08-03T18:56:52.088Z,25.06
2022-08-03T18:59:49.977Z,25.25
2022-08-03T19:02:30.405Z,25.40
2022-08-03T19:05:07.966Z,25.38
2022-08-03T19:07:37.728Z,25.72
2022-08-03T19:10:10.356Z,26.25
2022-08-03T19:12:46.391Z,26.55
2022-08-03T19:15:15.599Z,26.44
2022-08-03T19:17:50.242Z,27.65
2022-08-03T19:20:30.771Z,27.47
2022-08-03T19:22:59.976Z,27.36
2022-08-03T19:25:35.433Z,27.56
2022-08-03T19:28:06.004Z,27.87
2022-08-03T19:30:40.258Z,27.88
2022-08-03T19:33:10.327Z,28.44
2022-08-03T19:35:54.678Z,28.65
2022-08-03T19:38:28.427Z,28.39
2022-08-03T19:41:17.943Z,29.24
2022-08-03T19:47:06.016Z,29.18
2022-08-03T19:50:02.797Z,29.44
2022-08-03T19:52:31.327Z,29.30
2022-08-03T19:55:00.518Z,30.03
2022-08-03T19:57:29.848Z,30.24
2022-08-03T19:59:58.200Z,29.60
2022-08-03T20:02:27.804Z,29.88
2022-08-03T20:04:59.639Z,30.17
2022-08-03T20:07:32.304Z,30.63
2022-08-03T20:10:02.128Z,30.65
2022-08-03T20:12:33.170Z,30.83
2022-08-03T20:15:05.609Z,31.00
2022-08-03T20:17:56.642Z,31.33
2022-08-03T20:20:25.784Z,31.31
2022-08-03T20:22:57.462Z,31.28
2022-08-03T20:25:37.605Z,31.43
2022-08-03T20:28:15.397Z,31.48
2022-08-03T20:30:46.361Z,31.44
2022-08-03T20:33:18.314Z,31.72
2022-08-03T20:35:48.911Z,31.33
2022-08-03T20:38:18.424Z,31.82
2022-08-03T20:40:49.942Z,31.82
2022-08-03T20:43:19.998Z,31.84
2022-08-03T20:45:59.188Z,31.96
2022-08-03T20:48:37.309Z,32.04
2022-08-03T20:51:19.310Z,32.30
2022-08-03T20:54:00.219Z,32.50
2022-08-03T20:56:34.086Z,32.75
2022-08-03T20:59:07.143Z,32.66
2022-08-03T21:01:42.148Z,32.49
2022-08-03T21:04:11.701Z,32.64
2022-08-03T21:06:53.437Z,32.91
2022-08-03T21:09:33.445Z,33.63
2022-08-03T21:12:15.461Z,33.50
2022-08-03T21:13:02.804Z,29.21
2022-08-03T21:15:04.623Z,33.31
2022-08-03T21:17:43.492Z,33.34
2022-08-03T21:20:13.170Z,33.47
2022-08-03T21:22:46.624Z,33.86
2022-08-03T21:25:16.568Z,34.17
2022-08-03T21:27:44.199Z,34.18
2022-08-03T21:30:12.380Z,34.38
2022-08-03T21:32:43.240Z,34.70
2022-08-03T21:35:11.963Z,34.54
2022-08-03T21:37:41.579Z,34.63
2022-08-03T21:40:12.304Z,34.61
2022-08-03T21:42:45.425Z,35.00
2022-08-03T21:45:17.326Z,35.18
2022-08-03T21:47:45.812Z,35.03
2022-08-03T21:50:14.123Z,34.61
2022-08-03T21:52:49.267Z,35.07
2022-08-03T21:55:18.422Z,34.72
2022-08-03T21:57:53.786Z,35.25
2022-08-03T22:00:23.204Z,34.89
2022-08-03T22:02:58.127Z,35.30
2022-08-03T22:05:42.935Z,35.21
2022-08-03T22:08:13.852Z,35.37
2022-08-03T22:10:44.333Z,35.15
2022-08-03T22:13:20.625Z,35.52
2022-08-03T22:16:04.355Z,35.41
2022-08-03T22:18:31.649Z,35.51
2022-08-03T22:20:59.938Z,35.25
2022-08-03T22:23:28.159Z,35.77
2022-08-03T22:25:58.255Z,35.45
2022-08-03T22:28:30.536Z,35.53
2022-08-03T22:30:59.323Z,35.69
2022-08-03T22:33:48.953Z,35.96
2022-08-03T22:36:21.465Z,35.79
2022-08-03T22:38:51.939Z,36.05
2022-08-03T22:41:20.257Z,36.08
2022-08-03T22:43:47.705Z,35.81
2022-08-03T22:46:18.695Z,36.15
2022-08-03T22:48:48.545Z,36.60
2022-08-03T22:51:16.476Z,36.18
2022-08-03T22:53:46.169Z,36.61
2022-08-03T22:56:13.945Z,36.82
2022-08-03T22:58:41.349Z,36.83
2022-08-03T23:01:11.996Z,37.27
2022-08-03T23:03:58.617Z,37.78
2022-08-03T23:06:35.697Z,38.17
2022-08-03T23:09:14.228Z,38.33
2022-08-03T23:11:45.900Z,38.54
2022-08-03T23:14:17.186Z,38.35
2022-08-03T23:16:46.760Z,38.75
2022-08-03T23:19:17.006Z,38.68
2022-08-03T23:22:00.132Z,38.85
2022-08-03T23:24:30.440Z,39.00
2022-08-03T23:26:59.228Z,39.19
2022-08-03T23:29:29.597Z,39.80
2022-08-03T23:31:58.029Z,39.77
2022-08-03T23:34:44.746Z,40.09
2022-08-03T23:37:17.771Z,40.36
2022-08-03T23:39:49.097Z,39.42
2022-08-03T23:42:20.182Z,39.39
2022-08-03T23:44:54.496Z,39.47
2022-08-03T23:47:22.199Z,39.32
2022-08-03T23:49:50.361Z,39.56
2022-08-03T23:52:33.683Z,39.47
2022-08-03T23:55:06.846Z,39.39
2022-08-03T23:57:49.131Z,39.43
